createdAt,value
2023-04-09T00:01:59.163Z,25.60
2023-04-09T00:04:27.232Z,26.27
2023-04-09T00:06:55.258Z,28.37
2023-04-09T00:09:23.301Z,27.27
2023-04-09T00:11:51.248Z,27.37
2023-04-09T00:14:20.562Z,28.73
2023-04-09T00:16:48.543Z,30.07
2023-04-09T00:19:16.652Z,28.47
2023-04-09T00:21:44.601Z,27.03
2023-04-09T00:24:12.703Z,27.57
2023-04-09T00:26:40.745Z,28.77
2023-04-09T00:29:08.711Z,28.03
2023-04-09T00:31:38.141Z,28.00
2023-04-09T00:34:06.200Z,27.67
2023-04-09T00:36:34.193Z,28.80
2023-04-09T00:39:02.178Z,28.33
2023-04-09T00:41:30.140Z,27.30
2023-04-09T00:43:58.245Z,27.10
2023-04-09T00:46:26.431Z,27.60
2023-04-09T00:48:56.204Z,28.33
2023-04-09T00:51:24.202Z,28.70
2023-04-09T00:53:52.307Z,30.03
2023-04-09T00:56:22.897Z,31.70
2023-04-09T00:58:51.344Z,31.27
2023-04-09T01:01:19.626Z,32.10
2023-04-09T01:03:47.772Z,32.83
2023-04-09T01:06:29.062Z,29.60
2023-04-09T01:09:04.237Z,32.53
2023-04-09T01:11:38.982Z,31.60
2023-04-09T01:14:14.066Z,33.43
2023-04-09T01:16:45.649Z,34.50
2023-04-09T01:19:27.768Z,32.63
2023-04-09T01:21:58.904Z,33.33
2023-04-09T01:24:41.212Z,32.27
2023-04-09T01:27:10.745Z,32.57
2023-04-09T01:29:46.219Z,31.03
2023-04-09T01:32:17.762Z,32.43
2023-04-09T01:34:48.276Z,28.77
2023-04-09T01:37:17.996Z,31.37
2023-04-09T01:39:47.018Z,29.80
2023-04-09T01:42:18.218Z,29.30
2023-04-09T01:44:48.824Z,30.10
2023-04-09T01:47:17.247Z,30.53
2023-04-09T01:49:45.817Z,29.40
2023-04-09T01:52:14.041Z,30.47
2023-04-09T01:54:43.420Z,31.50
2023-04-09T01:57:11.369Z,31.20
2023-04-09T01:59:39.389Z,32.37
2023-04-09T02:02:13.365Z,31.40
2023-04-09T02:04:47.812Z,32.03
2023-04-09T02:07:24.657Z,31.60
2023-04-09T02:09:55.494Z,30.83
2023-04-09T02:12:24.440Z,30.50
2023-04-09T02:14:53.928Z,31.23
2023-04-09T02:17:23.410Z,32.83
2023-04-09T02:19:51.846Z,31.63
2023-04-09T02:22:19.930Z,34.93
2023-04-09T02:24:48.366Z,32.30
2023-04-09T02:27:16.413Z,34.17
2023-04-09T02:29:44.578Z,34.53
2023-04-09T02:32:12.515Z,34.43
2023-04-09T02:34:42.449Z,33.97
2023-04-09T02:37:10.648Z,34.53
2023-04-09T02:39:38.664Z,35.73
2023-04-09T02:42:07.929Z,35.77
2023-04-09T02:44:35.960Z,37.17
2023-04-09T02:47:04.019Z,36.53
2023-04-09T02:49:32.060Z,37.40
2023-04-09T02:52:01.404Z,36.23
2023-04-09T02:54:29.430Z,36.20
2023-04-09T02:56:57.548Z,34.23
2023-04-09T02:59:25.538Z,33.63
2023-04-09T03:01:53.581Z,33.00
2023-04-09T03:04:21.614Z,32.23
2023-04-09T03:06:51.649Z,33.77
2023-04-09T03:09:21.266Z,39.87
2023-04-09T03:11:49.256Z,37.33
2023-04-09T03:14:17.237Z,34.63
2023-04-09T03:16:45.230Z,34.90
2023-04-09T03:19:13.226Z,34.43
2023-04-09T03:21:41.264Z,34.70
2023-04-09T03:24:09.350Z,33.80
2023-04-09T03:26:38.806Z,31.77
2023-04-09T03:29:07.543Z,33.50
2023-04-09T03:31:35.626Z,32.67
2023-04-09T03:34:03.693Z,30.77
2023-04-09T03:36:31.696Z,31.27
2023-04-09T03:39:00.415Z,30.83
2023-04-09T03:41:28.715Z,29.77
2023-04-09T03:43:58.050Z,30.63
2023-04-09T03:46:26.359Z,30.57
2023-04-09T03:48:54.639Z,30.50
2023-04-09T03:51:22.884Z,28.90
2023-04-09T03:53:50.907Z,29.70
2023-04-09T03:56:18.879Z,29.40
2023-04-09T03:58:48.468Z,30.53
2023-04-09T04:01:17.833Z,29.47
2023-04-09T04:03:48.828Z,29.43
2023-04-09T04:06:16.987Z,29.70
2023-04-09T04:08:45.547Z,28.63
2023-04-09T04:11:13.515Z,29.27
2023-04-09T04:13:41.505Z,31.40
2023-04-09T04:16:10.449Z,30.67
2023-04-09T04:18:39.857Z,31.20
2023-04-09T04:21:14.152Z,31.97
2023-04-09T04:23:42.221Z,30.90
2023-04-09T04:26:11.115Z,31.57
2023-04-09T04:28:39.997Z,28.43
2023-04-09T04:31:10.675Z,31.03
2023-04-09T04:33:41.325Z,30.80
2023-04-09T04:36:10.525Z,32.07
2023-04-09T04:38:38.909Z,33.50
2023-04-09T04:41:07.168Z,29.80
2023-04-09T04:43:35.196Z,32.50
2023-04-09T04:46:03.254Z,32.17
2023-04-09T04:48:32.033Z,32.07
2023-04-09T04:51:02.923Z,32.43
2023-04-09T04:53:30.904Z,32.13
2023-04-09T04:55:58.945Z,31.07
2023-04-09T04:58:26.947Z,31.30
2023-04-09T05:00:54.999Z,29.57
2023-04-09T05:03:24.072Z,30.77
2023-04-09T05:05:54.068Z,31.13
2023-04-09T05:08:23.518Z,32.07
2023-04-09T05:10:51.508Z,31.97
2023-04-09T05:13:19.614Z,33.07
2023-04-09T05:15:47.617Z,30.93
2023-04-09T05:18:15.783Z,33.00
2023-04-09T05:20:43.764Z,30.37
2023-04-09T05:23:12.565Z,32.10
2023-04-09T05:25:41.997Z,34.13
2023-04-09T05:28:11.247Z,37.07
2023-04-09T05:30:39.395Z,36.60
2023-04-09T05:33:07.450Z,35.03
2023-04-09T05:35:39.293Z,33.97
2023-04-09T05:38:07.384Z,36.93
2023-04-09T05:40:35.505Z,34.93
2023-04-09T05:43:04.842Z,35.43
2023-04-09T05:45:32.821Z,34.00
2023-04-09T05:48:00.865Z,35.43
2023-04-09T05:50:28.853Z,34.30
2023-04-09T05:52:57.142Z,32.53
2023-04-09T05:55:25.184Z,33.63
2023-04-09T05:57:53.916Z,31.00
2023-04-09T06:00:23.293Z,32.27
2023-04-09T06:02:51.630Z,30.77
2023-04-09T06:05:19.740Z,33.90
2023-04-09T06:07:48.160Z,32.73
2023-04-09T06:10:16.302Z,32.00
2023-04-09T06:12:44.256Z,31.43
2023-04-09T06:15:12.769Z,32.67
2023-04-09T06:17:42.176Z,34.13
2023-04-09T06:20:11.269Z,34.73
2023-04-09T06:22:39.297Z,35.37
2023-04-09T06:25:08.182Z,34.00
2023-04-09T06:27:36.220Z,33.43
2023-04-09T06:30:04.274Z,35.20
2023-04-09T06:32:37.660Z,34.90
2023-04-09T06:35:12.917Z,36.10
2023-04-09T06:37:40.917Z,35.83
2023-04-09T06:40:09.950Z,35.57
2023-04-09T06:42:37.909Z,37.33
2023-04-09T06:45:08.516Z,38.97
2023-04-09T06:47:36.750Z,39.20
2023-04-09T06:50:05.422Z,40.10
2023-04-09T06:52:34.810Z,40.40
2023-04-09T06:55:02.872Z,40.67
2023-04-09T06:57:30.866Z,42.60
2023-04-09T06:59:58.815Z,41.00
2023-04-09T07:02:27.826Z,44.33
2023-04-09T07:04:56.080Z,44.50
2023-04-09T07:07:25.863Z,44.70
2023-04-09T07:09:55.624Z,44.60
2023-04-09T07:12:29.714Z,45.70
2023-04-09T07:14:59.385Z,42.90
2023-04-09T07:17:27.465Z,42.10
2023-04-09T07:19:55.859Z,41.57
2023-04-09T07:22:24.572Z,38.30
2023-04-09T07:24:55.084Z,37.20
2023-04-09T07:27:25.950Z,36.50
2023-04-09T07:29:56.144Z,40.03
2023-04-09T07:32:24.263Z,40.70
2023-04-09T07:34:53.356Z,37.90
2023-04-09T07:37:21.763Z,39.97
2023-04-09T07:39:51.295Z,38.33
2023-04-09T07:42:19.322Z,40.27
2023-04-09T07:44:48.725Z,40.80
2023-04-09T07:47:16.877Z,40.43
2023-04-09T07:49:44.846Z,39.10
2023-04-09T07:52:13.435Z,41.27
2023-04-09T07:54:41.550Z,39.60
2023-04-09T07:57:09.506Z,41.27
2023-04-09T07:59:37.545Z,40.77
2023-04-09T08:02:07.113Z,41.67
2023-04-09T08:04:35.329Z,40.70
2023-04-09T08:07:03.498Z,41.33
2023-04-09T08:09:31.610Z,38.67
2023-04-09T08:11:59.654Z,38.83
2023-04-09T08:14:27.664Z,39.67
2023-04-09T08:16:56.497Z,38.17
2023-04-09T08:19:25.909Z,37.73
2023-04-09T08:21:53.884Z,40.17
2023-04-09T08:24:22.424Z,41.00
2023-04-09T08:26:50.484Z,40.50
2023-04-09T08:29:18.551Z,40.77
2023-04-09T08:31:46.665Z,42.77
2023-04-09T08:34:16.129Z,41.87
2023-04-09T08:36:49.869Z,42.70
2023-04-09T08:39:18.959Z,43.10
2023-04-09T08:41:47.632Z,44.57
2023-04-09T08:44:15.711Z,44.73
2023-04-09T08:46:44.765Z,44.77
2023-04-09T08:49:13.178Z,46.47
2023-04-09T08:51:46.516Z,47.10
2023-04-09T08:54:17.138Z,49.07
2023-04-09T08:56:45.247Z,46.20
2023-04-09T08:59:18.345Z,47.33
2023-04-09T09:01:48.099Z,47.00
2023-04-09T09:04:16.305Z,47.60
2023-04-09T09:06:44.964Z,47.10
2023-04-09T09:09:14.148Z,46.90
2023-04-09T09:11:45.576Z,46.03
2023-04-09T09:14:15.050Z,48.60
2023-04-09T09:16:44.633Z,45.60
2023-04-09T09:19:30.314Z,45.53
2023-04-09T09:21:58.946Z,45.40
2023-04-09T09:24:27.064Z,45.07
2023-04-09T09:26:57.387Z,47.87
2023-04-09T09:29:25.500Z,43.47
2023-04-09T09:31:55.136Z,44.17
2023-04-09T09:34:24.627Z,45.13
2023-04-09T09:36:52.773Z,41.93
2023-04-09T09:39:22.073Z,39.90
2023-04-09T09:42:07.621Z,39.77
2023-04-09T09:44:37.020Z,40.63
2023-04-09T09:47:06.166Z,40.80
2023-04-09T09:49:34.178Z,40.70
2023-04-09T09:52:03.836Z,45.10
2023-04-09T09:54:40.954Z,40.67
2023-04-09T09:57:10.994Z,42.63
2023-04-09T09:59:42.876Z,39.23
2023-04-09T10:02:19.432Z,41.57
2023-04-09T10:04:48.667Z,37.57
2023-04-09T10:07:17.652Z,39.83
2023-04-09T10:09:50.927Z,42.10
2023-04-09T10:12:22.393Z,39.77
2023-04-09T10:14:53.000Z,40.03
2023-04-09T10:17:21.779Z,41.93
2023-04-09T10:19:55.861Z,45.33
2023-04-09T10:22:27.741Z,43.57
2023-04-09T10:24:55.855Z,41.40
2023-04-09T10:27:23.834Z,39.17
2023-04-09T10:29:53.136Z,38.33
2023-04-09T10:32:23.641Z,39.37
2023-04-09T10:34:52.182Z,39.90
2023-04-09T10:37:23.549Z,41.57
2023-04-09T10:39:52.814Z,40.37
2023-04-09T10:42:24.808Z,39.67
2023-04-09T10:45:08.686Z,40.00
2023-04-09T10:47:38.123Z,38.87
2023-04-09T10:50:19.866Z,36.57
2023-04-09T10:52:48.763Z,37.17
2023-04-09T10:55:34.413Z,34.63
2023-04-09T10:58:03.090Z,35.60
2023-04-09T11:00:32.497Z,37.83
2023-04-09T11:03:22.768Z,34.23
2023-04-09T11:05:54.911Z,35.87
2023-04-09T11:08:23.144Z,37.33
2023-04-09T11:10:52.404Z,35.50
2023-04-09T11:13:22.469Z,35.30
2023-04-09T11:15:51.948Z,35.80
2023-04-09T11:18:24.532Z,34.72
2023-04-09T11:20:56.224Z,36.20
2023-04-09T11:23:25.903Z,36.88
2023-04-09T11:25:54.823Z,39.08
2023-04-09T11:28:24.114Z,38.00
2023-04-09T11:30:53.796Z,40.20
2023-04-09T11:33:22.442Z,39.10
2023-04-09T11:35:50.762Z,39.83
2023-04-09T11:38:19.307Z,39.47
2023-04-09T11:40:49.271Z,39.92
2023-04-09T11:43:18.446Z,38.80
2023-04-09T11:45:48.725Z,39.07
2023-04-09T11:48:19.426Z,37.40
2023-04-09T11:50:48.141Z,38.47
2023-04-09T11:53:20.428Z,33.53
2023-04-09T11:55:52.465Z,35.07
2023-04-09T11:58:24.161Z,33.67
2023-04-09T12:00:55.087Z,32.93
2023-04-09T12:03:30.626Z,33.22
2023-04-09T12:06:01.617Z,35.85
2023-04-09T12:08:29.666Z,36.67
2023-04-09T12:10:57.737Z,30.93
2023-04-09T12:13:34.339Z,33.50
2023-04-09T12:16:03.157Z,34.10
2023-04-09T12:18:32.600Z,28.47
2023-04-09T12:21:01.455Z,25.67
2023-04-09T12:23:31.440Z,27.60
2023-04-09T12:26:01.310Z,28.03
2023-04-09T12:28:29.903Z,28.43
2023-04-09T12:30:59.598Z,28.02
2023-04-09T12:33:27.695Z,22.80
2023-04-09T12:35:58.465Z,20.90
2023-04-09T12:38:26.793Z,21.77
2023-04-09T12:40:54.946Z,22.52
2023-04-09T12:43:22.984Z,23.20
2023-04-09T12:45:51.570Z,23.53
2023-04-09T12:48:19.632Z,22.13
2023-04-09T12:50:47.727Z,21.58
2023-04-09T12:53:17.038Z,23.50
2023-04-09T12:55:45.060Z,22.45
2023-04-09T12:58:12.994Z,21.45
2023-04-09T13:00:41.108Z,19.92
2023-04-09T13:03:09.268Z,19.55
2023-04-09T13:05:37.341Z,18.27
2023-04-09T13:08:05.525Z,21.25
2023-04-09T13:10:35.298Z,19.20
2023-04-09T13:13:03.549Z,19.38
2023-04-09T13:15:31.567Z,17.83
2023-04-09T13:17:59.592Z,17.50
2023-04-09T13:20:27.633Z,16.40
2023-04-09T13:22:55.680Z,17.87
2023-04-09T13:25:24.149Z,18.03
2023-04-09T13:27:53.540Z,17.30
2023-04-09T13:30:22.836Z,18.20
2023-04-09T13:32:50.956Z,17.97
2023-04-09T13:35:19.873Z,16.23
2023-04-09T13:37:47.858Z,15.43
2023-04-09T13:40:16.326Z,15.37
2023-04-09T13:42:44.316Z,13.23
2023-04-09T13:45:13.726Z,10.67
2023-04-09T13:47:42.991Z,11.83
2023-04-09T13:50:13.149Z,11.90
2023-04-09T13:52:41.222Z,12.03
2023-04-09T13:55:10.598Z,12.23
2023-04-09T13:57:38.581Z,10.83
2023-04-09T14:00:08.214Z,9.60
2023-04-09T14:02:37.812Z,10.30
2023-04-09T14:05:06.531Z,11.47
2023-04-09T14:07:34.505Z,12.27
2023-04-09T14:10:02.707Z,11.43
2023-04-09T14:12:30.789Z,10.87
2023-04-09T14:14:58.712Z,11.83
2023-04-09T14:17:27.558Z,11.60
2023-04-09T14:19:57.954Z,11.60
2023-04-09T14:22:26.450Z,12.00
2023-04-09T14:24:54.400Z,13.27
2023-04-09T14:27:22.486Z,14.23
2023-04-09T14:29:51.537Z,15.53
2023-04-09T14:32:19.715Z,15.77
2023-04-09T14:34:47.663Z,17.03
2023-04-09T14:37:17.280Z,17.37
2023-04-09T14:39:45.337Z,15.00
2023-04-09T14:42:13.328Z,15.47
2023-04-09T14:44:41.314Z,15.50
2023-04-09T14:47:09.313Z,14.03
2023-04-09T14:49:37.299Z,18.57
2023-04-09T14:52:05.350Z,16.80
2023-04-09T14:54:34.697Z,15.53
2023-04-09T14:57:03.868Z,13.70
2023-04-09T14:59:31.865Z,13.77
2023-04-09T15:01:59.906Z,13.70
2023-04-09T15:04:28.056Z,14.33
2023-04-09T15:06:56.147Z,16.33
2023-04-09T15:09:24.200Z,15.07
2023-04-09T15:11:54.122Z,14.57
2023-04-09T15:14:23.825Z,14.27
2023-04-09T15:16:55.798Z,15.40
2023-04-09T15:19:23.859Z,16.53
2023-04-09T15:21:51.874Z,16.60
2023-04-09T15:24:19.827Z,17.77
2023-04-09T15:26:47.795Z,19.00
2023-04-09T15:29:17.244Z,19.90
2023-04-09T15:31:45.467Z,18.10
2023-04-09T15:34:13.539Z,17.60
2023-04-09T15:36:41.504Z,18.57
2023-04-09T15:39:09.496Z,18.03
2023-04-09T15:41:37.546Z,17.43
2023-04-09T15:44:05.683Z,17.90
2023-04-09T15:46:35.107Z,17.73
2023-04-09T15:49:03.083Z,18.00
2023-04-09T15:51:31.143Z,15.30
2023-04-09T15:53:59.616Z,15.23
2023-04-09T15:56:27.672Z,16.53
2023-04-09T15:58:55.811Z,15.67
2023-04-09T16:01:24.084Z,18.10
2023-04-09T16:03:53.478Z,17.80
2023-04-09T16:06:21.814Z,18.07
2023-04-09T16:08:49.896Z,18.23
2023-04-09T16:11:18.456Z,18.90
2023-04-09T16:13:47.252Z,18.40
2023-04-09T16:16:15.377Z,20.90
2023-04-09T16:18:43.419Z,20.73
2023-04-09T16:21:13.060Z,21.67
2023-04-09T16:23:41.593Z,22.80
2023-04-09T16:26:10.876Z,22.27
2023-04-09T16:28:38.893Z,24.07
2023-04-09T16:31:07.506Z,27.93
2023-04-09T16:33:35.667Z,24.13
2023-04-09T16:36:03.713Z,24.57
2023-04-09T16:38:33.077Z,24.07
2023-04-09T16:41:01.053Z,21.43
2023-04-09T16:43:29.135Z,20.33
2023-04-09T16:45:57.238Z,20.80
2023-04-09T16:48:25.624Z,15.70
2023-04-09T16:50:53.656Z,14.90
2023-04-09T16:53:21.643Z,15.40
2023-04-09T16:55:50.961Z,16.70
2023-04-09T16:58:18.944Z,17.27
2023-04-09T17:00:48.231Z,22.87
2023-04-09T17:03:17.376Z,22.07
2023-04-09T17:05:49.316Z,24.53
2023-04-09T17:08:17.924Z,25.10
2023-04-09T17:10:46.252Z,28.53
2023-04-09T17:13:15.860Z,27.97
2023-04-09T17:15:44.328Z,24.50
2023-04-09T17:18:12.324Z,21.97
2023-04-09T17:20:40.301Z,20.90
2023-04-09T17:23:08.767Z,20.87
2023-04-09T17:25:37.012Z,21.67
2023-04-09T17:28:06.054Z,21.40
2023-04-09T17:30:36.192Z,21.70
2023-04-09T17:33:04.276Z,22.53
2023-04-09T17:35:32.714Z,23.27
2023-04-09T17:38:01.040Z,24.20
2023-04-09T17:40:29.198Z,24.30
2023-04-09T17:42:57.230Z,22.90
2023-04-09T17:45:25.235Z,23.77
2023-04-09T17:47:55.354Z,22.80
2023-04-09T17:50:23.423Z,25.10
2023-04-09T17:52:51.456Z,22.97
2023-04-09T17:55:19.488Z,23.07
2023-04-09T17:57:47.675Z,23.57
2023-04-09T18:00:16.734Z,22.83
2023-04-09T18:02:45.149Z,22.93
2023-04-09T18:05:14.787Z,23.80
2023-04-09T18:07:42.859Z,22.20
2023-04-09T18:10:11.488Z,22.17
2023-04-09T18:12:39.475Z,21.97
2023-04-09T18:15:08.614Z,21.67
2023-04-09T18:17:36.611Z,22.10
2023-04-09T18:20:04.763Z,20.83
2023-04-09T18:22:35.218Z,22.97
2023-04-09T18:25:04.173Z,25.30
2023-04-09T18:27:32.219Z,23.07
2023-04-09T18:30:00.326Z,23.80
2023-04-09T18:32:28.703Z,22.93
2023-04-09T18:34:57.005Z,21.53
2023-04-09T18:37:26.542Z,22.30
2023-04-09T18:39:55.878Z,23.83
2023-04-09T18:42:23.926Z,23.23
2023-04-09T18:44:52.135Z,19.37
2023-04-09T18:47:20.139Z,21.20
2023-04-09T18:49:48.187Z,18.97
2023-04-09T18:52:16.159Z,20.80
2023-04-09T18:54:44.223Z,22.63
2023-04-09T18:57:13.614Z,21.07
2023-04-09T18:59:42.150Z,21.17
2023-04-09T19:02:10.181Z,20.90
2023-04-09T19:04:40.162Z,19.63
2023-04-09T19:07:08.582Z,18.57
2023-04-09T19:09:37.493Z,18.50
2023-04-09T19:12:06.075Z,18.67
2023-04-09T19:14:36.451Z,18.70
2023-04-09T19:17:04.452Z,19.33
2023-04-09T19:19:32.585Z,21.07
2023-04-09T19:22:00.654Z,22.00
2023-04-09T19:24:28.624Z,24.83
2023-04-09T19:26:57.312Z,27.93
2023-04-09T19:29:25.312Z,32.57
2023-04-09T19:31:54.760Z,26.57
2023-04-09T19:34:22.893Z,22.13
2023-04-09T19:36:51.049Z,21.27
2023-04-09T19:39:19.441Z,21.60
2023-04-09T19:41:47.487Z,22.90
2023-04-09T19:44:15.463Z,21.97
2023-04-09T19:46:43.430Z,21.90
2023-04-09T19:49:12.794Z,22.17
2023-04-09T19:51:40.767Z,23.23
2023-04-09T19:54:10.704Z,23.50
2023-04-09T19:56:39.097Z,23.40
2023-04-09T19:59:07.276Z,23.30
2023-04-09T20:01:35.410Z,24.60
2023-04-09T20:04:03.508Z,23.90
2023-04-09T20:06:33.315Z,24.13
2023-04-09T20:09:01.291Z,24.47
2023-04-09T20:11:29.248Z,25.30
2023-04-09T20:13:57.285Z,24.03
2023-04-09T20:16:25.385Z,24.87
2023-04-09T20:18:53.562Z,25.77
2023-04-09T20:21:21.698Z,25.73
2023-04-09T20:23:51.393Z,26.07
2023-04-09T20:26:19.352Z,24.40
2023-04-09T20:28:49.446Z,25.87
2023-04-09T20:31:17.896Z,24.73
2023-04-09T20:33:45.852Z,25.20
2023-04-09T20:36:18.259Z,25.30
2023-04-09T20:38:46.401Z,25.87
2023-04-09T20:41:15.836Z,26.37
2023-04-09T20:43:44.135Z,28.80
2023-04-09T20:46:13.632Z,29.57
2023-04-09T20:48:43.152Z,30.90
2023-04-09T20:51:12.038Z,36.63
2023-04-09T20:53:40.399Z,36.70
2023-04-09T20:56:09.282Z,37.33
2023-04-09T20:58:38.966Z,34.23
2023-04-09T21:01:09.290Z,35.33
2023-04-09T21:03:38.460Z,35.40
2023-04-09T21:06:08.230Z,34.93
2023-04-09T21:08:36.443Z,36.97
2023-04-09T21:11:04.462Z,38.53
2023-04-09T21:13:40.443Z,37.30
2023-04-09T21:16:20.438Z,39.67
2023-04-09T21:18:48.927Z,42.17
2023-04-09T21:21:16.982Z,41.47
2023-04-09T21:23:44.955Z,43.40
2023-04-09T21:26:13.657Z,42.97
2023-04-09T21:28:41.656Z,44.23
2023-04-09T21:31:11.267Z,43.77
2023-04-09T21:33:40.994Z,44.00
2023-04-09T21:36:09.230Z,45.50
2023-04-09T21:38:37.195Z,43.37
2023-04-09T21:41:05.565Z,43.60
2023-04-09T21:43:34.620Z,40.53
2023-04-09T21:46:03.168Z,37.50
2023-04-09T21:48:31.679Z,39.30
2023-04-09T21:51:01.163Z,40.03
2023-04-09T21:53:29.170Z,41.00
2023-04-09T21:55:57.156Z,38.50
2023-04-09T21:58:25.265Z,34.87
2023-04-09T22:00:53.244Z,36.90
2023-04-09T22:03:21.810Z,33.63
2023-04-09T22:05:50.140Z,33.73
2023-04-09T22:08:19.528Z,32.87
2023-04-09T22:10:47.827Z,34.03
2023-04-09T22:13:15.957Z,33.53
2023-04-09T22:15:44.001Z,33.07
2023-04-09T22:18:12.054Z,34.10
2023-04-09T22:20:40.026Z,32.93
2023-04-09T22:23:09.661Z,34.50
2023-04-09T22:25:38.985Z,34.20
2023-04-09T22:28:07.404Z,34.37
2023-04-09T22:30:35.447Z,33.83
2023-04-09T22:33:03.447Z,33.33
2023-04-09T22:35:32.208Z,33.73
2023-04-09T22:38:00.582Z,39.77
2023-04-09T22:40:28.567Z,37.27
2023-04-09T22:42:57.922Z,40.23
2023-04-09T22:45:27.800Z,42.70
2023-04-09T22:47:55.889Z,41.43
2023-04-09T22:50:24.124Z,43.03
2023-04-09T22:52:54.519Z,41.23
2023-04-09T22:55:23.384Z,41.87
2023-04-09T22:57:51.364Z,40.93
2023-04-09T23:00:20.870Z,42.10
2023-04-09T23:02:50.760Z,40.30
2023-04-09T23:05:19.136Z,40.07
2023-04-09T23:07:47.188Z,36.83
2023-04-09T23:10:17.275Z,37.80
2023-04-09T23:12:45.301Z,36.90
2023-04-09T23:15:13.444Z,36.97
2023-04-09T23:17:42.893Z,38.80
2023-04-09T23:20:14.750Z,38.67
2023-04-09T23:22:42.980Z,37.90
2023-04-09T23:25:11.278Z,38.20
2023-04-09T23:27:39.234Z,38.53
2023-04-09T23:30:08.848Z,38.90
2023-04-09T23:32:36.937Z,37.93
2023-04-09T23:35:07.174Z,39.40
2023-04-09T23:37:35.213Z,38.33
2023-04-09T23:40:03.530Z,40.60
2023-04-09T23:42:33.070Z,39.37
2023-04-09T23:45:04.387Z,40.23
2023-04-09T23:47:33.617Z,39.10
2023-04-09T23:50:04.908Z,39.27
2023-04-09T23:52:35.204Z,40.27
2023-04-09T23:55:03.325Z,40.60
2023-04-09T23:57:31.379Z,43.53
2023-04-09T23:59:59.417Z,41.50
